createdAt,value
2022-08-03T00:03:58.584Z,70.01
2022-08-03T00:09:07.462Z,70.35
2022-08-03T00:14:15.357Z,70.67
2022-08-03T00:19:23.390Z,70.77
2022-08-03T00:24:31.586Z,70.89
2022-08-03T00:29:59.400Z,71.14
2022-08-03T00:35:14.775Z,71.20
2022-08-03T00:40:38.948Z,71.29
2022-08-03T00:45:47.351Z,71.36
2022-08-03T00:50:58.600Z,71.35
2022-08-03T00:56:07.092Z,71.55
2022-08-03T01:01:15.797Z,71.68
2022-08-03T01:06:34.971Z,71.60
2022-08-03T01:11:59.882Z,71.65
2022-08-03T01:17:20.396Z,71.78
2022-08-03T01:23:07.315Z,71.94
2022-08-03T01:28:35.926Z,71.96
2022-08-03T01:33:49.225Z,72.14
2022-08-03T01:39:00.888Z,72.29
2022-08-03T01:44:30.047Z,72.37
2022-08-03T01:49:41.996Z,72.43
2022-08-03T01:54:54.087Z,72.46
2022-08-03T02:00:01.713Z,73.52
2022-08-03T02:05:21.701Z,74.16
2022-08-03T02:10:35.378Z,73.93
2022-08-03T02:15:46.293Z,73.61
2022-08-03T02:20:56.376Z,73.45
2022-08-03T02:26:09.408Z,73.40
2022-08-03T02:31:21.623Z,73.38
2022-08-03T02:36:33.822Z,73.43
2022-08-03T02:41:45.094Z,73.47
2022-08-03T02:46:58.820Z,73.47
2022-08-03T02:52:13.194Z,73.33
2022-08-03T02:57:27.117Z,73.09
2022-08-03T03:02:36.745Z,72.78
2022-08-03T03:07:51.873Z,72.57
2022-08-03T03:13:03.354Z,72.46
2022-08-03T03:18:12.480Z,72.37
2022-08-03T03:23:22.695Z,72.44
2022-08-03T03:28:32.369Z,72.56
2022-08-03T03:33:41.298Z,72.69
2022-08-03T03:38:49.306Z,72.70
2022-08-03T03:43:57.483Z,72.79
2022-08-03T03:49:07.561Z,72.92
2022-08-03T03:54:15.590Z,73.15
2022-08-03T03:59:24.031Z,73.41
2022-08-03T04:04:51.777Z,73.77
2022-08-03T04:10:17.916Z,74.33
2022-08-03T04:15:27.714Z,74.70
2022-08-03T04:20:37.745Z,74.94
2022-08-03T04:25:47.831Z,75.19
2022-08-03T04:30:58.720Z,75.41
2022-08-03T04:36:10.945Z,75.64
2022-08-03T04:41:20.131Z,75.89
2022-08-03T04:46:31.227Z,76.17
2022-08-03T04:51:43.114Z,76.45
2022-08-03T04:56:51.239Z,76.58
2022-08-03T05:01:59.608Z,76.61
2022-08-03T05:07:11.630Z,76.55
2022-08-03T05:12:20.712Z,76.50
2022-08-03T05:17:29.293Z,76.55
2022-08-03T05:22:37.545Z,76.50
2022-08-03T05:27:45.813Z,76.45
2022-08-03T05:32:54.047Z,76.44
2022-08-03T05:38:02.574Z,76.56
2022-08-03T05:43:11.785Z,76.63
2022-08-03T05:48:20.803Z,76.55
2022-08-03T05:53:29.284Z,76.47
2022-08-03T05:58:38.095Z,76.46
2022-08-03T06:03:46.394Z,76.32
2022-08-03T06:08:54.804Z,75.56
2022-08-03T06:14:02.928Z,75.58
2022-08-03T06:19:10.850Z,75.69
2022-08-03T06:24:18.887Z,75.74
2022-08-03T06:29:34.100Z,75.72
2022-08-03T06:34:42.112Z,75.75
2022-08-03T06:39:50.124Z,75.83
2022-08-03T06:44:59.012Z,76.01
2022-08-03T06:50:16.218Z,76.05
2022-08-03T06:55:26.481Z,76.03
2022-08-03T07:00:34.815Z,75.92
2022-08-03T07:05:44.062Z,75.73
2022-08-03T07:10:51.989Z,75.62
2022-08-03T07:15:59.900Z,75.48
2022-08-03T07:21:11.298Z,75.36
2022-08-03T07:26:19.364Z,75.07
2022-08-03T07:31:27.437Z,74.83
2022-08-03T07:36:42.936Z,74.54
2022-08-03T07:41:52.104Z,74.34
2022-08-03T07:47:01.858Z,74.09
2022-08-03T07:52:28.329Z,73.87
2022-08-03T07:57:37.114Z,73.58
2022-08-03T08:03:04.331Z,72.66
2022-08-03T08:08:13.023Z,71.88
2022-08-03T08:13:21.036Z,70.02
2022-08-03T08:18:31.163Z,68.68
2022-08-03T08:23:44.158Z,67.86
2022-08-03T08:28:55.991Z,66.80
2022-08-03T08:34:06.275Z,64.72
2022-08-03T08:39:14.558Z,63.85
2022-08-03T08:44:23.601Z,62.76
2022-08-03T08:49:33.136Z,63.81
2022-08-03T08:54:45.031Z,61.77
2022-08-03T08:59:58.488Z,60.18
2022-08-03T09:05:07.838Z,58.59
2022-08-03T09:10:20.160Z,57.72
2022-08-03T09:15:31.707Z,57.38
2022-08-03T09:20:40.633Z,56.69
2022-08-03T09:25:48.932Z,55.76
2022-08-03T09:31:03.946Z,54.79
2022-08-03T09:36:12.763Z,52.88
2022-08-03T09:41:23.084Z,51.35
2022-08-03T09:46:32.471Z,51.42
2022-08-03T09:52:32.865Z,51.09
2022-08-03T09:57:11.131Z,50.78
2022-08-03T10:02:28.096Z,50.49
2022-08-03T10:07:46.430Z,50.09
2022-08-03T10:12:56.098Z,49.80
2022-08-03T10:18:04.841Z,49.34
2022-08-03T10:23:16.866Z,49.25
2022-08-03T10:28:26.782Z,49.00
2022-08-03T10:33:50.259Z,48.31
2022-08-03T10:39:02.419Z,48.26
2022-08-03T10:44:17.320Z,47.72
2022-08-03T10:49:33.820Z,47.63
2022-08-03T10:55:07.337Z,47.38
2022-08-03T11:00:17.678Z,47.19
2022-08-03T11:05:34.310Z,46.94
2022-08-03T11:10:45.102Z,46.88
2022-08-03T11:16:00.099Z,46.76
2022-08-03T11:21:12.975Z,46.56
2022-08-03T11:26:23.029Z,46.26
2022-08-03T11:31:53.273Z,46.26
2022-08-03T11:37:32.897Z,46.22
2022-08-03T11:42:48.519Z,46.04
2022-08-03T11:47:58.975Z,46.55
2022-08-03T11:53:07.949Z,45.64
2022-08-03T11:59:16.885Z,45.35
2022-08-03T12:03:51.914Z,44.88
2022-08-03T12:08:59.977Z,44.47
2022-08-03T12:14:49.729Z,44.30
2022-08-03T12:19:47.282Z,44.30
2022-08-03T12:24:55.544Z,43.41
2022-08-03T12:30:05.062Z,42.72
2022-08-03T12:35:24.995Z,42.43
2022-08-03T12:40:33.998Z,42.34
2022-08-03T12:45:42.335Z,42.06
2022-08-03T12:50:53.575Z,41.58
2022-08-03T12:56:08.168Z,41.39
2022-08-03T13:01:17.390Z,41.26
2022-08-03T13:06:29.060Z,41.14
2022-08-03T13:11:57.532Z,40.98
2022-08-03T13:17:08.604Z,40.60
2022-08-03T13:22:18.256Z,40.55
2022-08-03T13:28:03.978Z,39.96
2022-08-03T13:32:56.040Z,39.74
2022-08-03T13:38:04.772Z,39.64
2022-08-03T13:43:14.323Z,39.60
2022-08-03T13:48:36.655Z,39.34
2022-08-03T13:53:47.691Z,39.35
2022-08-03T13:58:55.953Z,39.28
2022-08-03T14:04:04.737Z,39.22
2022-08-03T14:09:22.813Z,38.85
2022-08-03T14:14:30.794Z,39.53
2022-08-03T14:19:52.926Z,38.93
2022-08-03T14:25:02.943Z,38.56
2022-08-03T14:30:14.068Z,38.20
2022-08-03T14:35:22.505Z,38.06
2022-08-03T14:40:30.880Z,37.84
2022-08-03T14:45:39.101Z,37.77
2022-08-03T14:50:51.322Z,37.95
2022-08-03T14:56:00.624Z,38.08
2022-08-03T15:02:03.313Z,37.92
2022-08-03T15:06:38.722Z,37.75
2022-08-03T15:11:47.638Z,37.84
2022-08-03T15:16:56.682Z,37.80
2022-08-03T15:22:03.980Z,37.72
2022-08-03T15:27:12.654Z,37.58
2022-08-03T15:32:20.928Z,37.55
2022-08-03T15:37:29.144Z,37.44
2022-08-03T15:42:38.093Z,37.36
2022-08-03T15:47:46.563Z,37.58
2022-08-03T15:52:55.156Z,37.44
2022-08-03T15:59:12.709Z,37.47
2022-08-03T16:03:34.840Z,37.36
2022-08-03T16:08:43.031Z,37.15
2022-08-03T16:14:11.941Z,36.95
2022-08-03T16:19:19.919Z,36.74
2022-08-03T16:24:28.429Z,36.69
2022-08-03T16:29:36.800Z,36.73
2022-08-03T16:34:46.110Z,36.75
2022-08-03T16:39:54.400Z,36.53
2022-08-03T16:45:02.746Z,36.33
2022-08-03T16:50:19.552Z,36.25
2022-08-03T16:55:48.884Z,36.16
2022-08-03T17:00:58.951Z,36.11
2022-08-03T17:06:09.434Z,36.08
2022-08-03T17:11:17.509Z,36.15
2022-08-03T17:16:26.087Z,36.17
2022-08-03T17:21:39.102Z,36.16
2022-08-03T17:26:53.143Z,36.10
2022-08-03T17:32:06.575Z,36.53
2022-08-03T17:37:49.875Z,37.75
2022-08-03T17:42:52.333Z,39.49
2022-08-03T17:48:01.320Z,40.58
2022-08-03T17:53:24.194Z,42.07
2022-08-03T17:58:56.733Z,43.14
2022-08-03T18:04:12.004Z,43.90
2022-08-03T18:10:03.614Z,44.07
2022-08-03T18:15:01.432Z,43.79
2022-08-03T18:20:34.603Z,44.36
2022-08-03T18:25:53.675Z,45.03
2022-08-03T18:31:08.020Z,45.70
2022-08-03T18:36:30.208Z,46.22
2022-08-03T18:41:44.576Z,46.85
2022-08-03T18:47:07.478Z,47.25
2022-08-03T18:52:37.843Z,47.60
2022-08-03T18:58:03.886Z,47.53
2022-08-03T19:03:20.344Z,47.67
2022-08-03T19:08:36.292Z,48.15
2022-08-03T19:13:51.926Z,48.73
2022-08-03T19:19:01.034Z,49.03
2022-08-03T19:24:11.433Z,49.45
2022-08-03T19:29:22.493Z,49.81
2022-08-03T19:34:33.506Z,50.37
2022-08-03T19:39:56.559Z,50.97
2022-08-03T19:45:13.866Z,51.40
2022-08-03T19:50:24.321Z,51.87
2022-08-03T19:55:34.559Z,52.34
2022-08-03T20:00:48.718Z,52.78
2022-08-03T20:05:57.499Z,53.19
2022-08-03T20:11:07.678Z,53.64
2022-08-03T20:16:16.095Z,54.21
2022-08-03T20:21:27.001Z,54.80
2022-08-03T20:26:36.049Z,55.35
2022-08-03T20:31:44.883Z,55.69
2022-08-03T20:36:53.839Z,55.95
2022-08-03T20:42:02.323Z,56.14
2022-08-03T20:47:18.241Z,56.32
2022-08-03T20:52:35.410Z,56.50
2022-08-03T20:57:59.454Z,56.72
2022-08-03T21:03:09.034Z,57.04
2022-08-03T21:08:20.887Z,57.27
2022-08-03T21:13:39.657Z,57.46
2022-08-03T21:18:51.838Z,57.59
2022-08-03T21:24:03.889Z,57.80
2022-08-03T21:29:14.506Z,58.00
2022-08-03T21:34:23.940Z,58.16
2022-08-03T21:39:33.798Z,58.21
2022-08-03T21:44:42.032Z,58.24
2022-08-03T21:50:06.570Z,58.23
2022-08-03T21:55:21.094Z,58.40
2022-08-03T22:00:29.403Z,58.53
2022-08-03T22:05:43.322Z,58.59
2022-08-03T22:10:54.747Z,58.74
2022-08-03T22:16:03.568Z,59.88
2022-08-03T22:21:15.023Z,59.88
2022-08-03T22:26:35.228Z,59.65
2022-08-03T22:31:58.057Z,59.62
2022-08-03T22:37:09.193Z,59.43
2022-08-03T22:42:18.395Z,59.88
2022-08-03T22:47:26.855Z,60.08
2022-08-03T22:52:36.555Z,60.11
2022-08-03T22:57:45.255Z,60.28
2022-08-03T23:03:08.200Z,60.60
2022-08-03T23:08:20.373Z,60.75
2022-08-03T23:13:33.601Z,60.97
2022-08-03T23:18:44.234Z,61.22
2022-08-03T23:23:52.408Z,61.30
2022-08-03T23:29:03.600Z,61.41
2022-08-03T23:34:32.712Z,61.47
2022-08-03T23:39:41.967Z,61.74
2022-08-03T23:44:51.942Z,62.08
2022-08-03T23:49:59.874Z,62.36
2022-08-03T23:55:23.454Z,62.74
